sensor_id;sensor_type;location;lat;lon;timestamp;P1;durP1;ratioP1;P2;durP2;ratioP2
19189;SDS011;9727;50.200;19.038;2022-11-13T00:02:24;83.30;;;33.93;;
19189;SDS011;9727;50.200;19.038;2022-11-13T00:04:53;70.33;;;32.87;;
19189;SDS011;9727;50.200;19.038;2022-11-13T00:07:19;72.80;;;31.23;;
19189;SDS011;9727;50.200;19.038;2022-11-13T00:09:46;81.20;;;31.10;;
19189;SDS011;9727;50.200;19.038;2022-11-13T00:12:12;70.83;;;30.83;;
19189;SDS011;9727;50.200;19.038;2022-11-13T00:14:39;74.33;;;29.53;;
19189;SDS011;9727;50.200;19.038;2022-11-13T00:17:06;70.67;;;30.43;;
19189;SDS011;9727;50.200;19.038;2022-11-13T00:19:32;70.57;;;30.57;;
19189;SDS011;9727;50.200;19.038;2022-11-13T00:22:00;71.33;;;29.73;;
19189;SDS011;9727;50.200;19.038;2022-11-13T00:24:26;84.57;;;34.43;;
19189;SDS011;9727;50.200;19.038;2022-11-13T00:26:53;70.87;;;30.57;;
19189;SDS011;9727;50.200;19.038;2022-11-13T00:29:19;92.33;;;35.33;;
19189;SDS011;9727;50.200;19.038;2022-11-13T00:31:46;87.13;;;35.20;;
19189;SDS011;9727;50.200;19.038;2022-11-13T00:34:12;70.07;;;29.13;;
19189;SDS011;9727;50.200;19.038;2022-11-13T00:36:39;66.70;;;27.50;;
19189;SDS011;9727;50.200;19.038;2022-11-13T00:39:07;64.47;;;24.83;;
19189;SDS011;9727;50.200;19.038;2022-11-13T00:41:34;55.37;;;24.67;;
19189;SDS011;9727;50.200;19.038;2022-11-13T00:44:00;48.20;;;23.03;;
19189;SDS011;9727;50.200;19.038;2022-11-13T00:46:28;55.50;;;23.37;;
19189;SDS011;9727;50.200;19.038;2022-11-13T00:48:54;53.50;;;24.00;;
19189;SDS011;9727;50.200;19.038;2022-11-13T00:51:21;65.03;;;25.93;;
19189;SDS011;9727;50.200;19.038;2022-11-13T00:53:47;60.93;;;23.20;;
19189;SDS011;9727;50.200;19.038;2022-11-13T00:56:15;51.43;;;22.53;;
19189;SDS011;9727;50.200;19.038;2022-11-13T00:58:42;55.60;;;25.30;;
19189;SDS011;9727;50.200;19.038;2022-11-13T01:01:09;59.20;;;24.63;;
19189;SDS011;9727;50.200;19.038;2022-11-13T01:03:36;58.00;;;23.37;;
19189;SDS011;9727;50.200;19.038;2022-11-13T01:06:08;47.43;;;22.00;;
19189;SDS011;9727;50.200;19.038;2022-11-13T01:08:34;58.20;;;22.90;;
19189;SDS011;9727;50.200;19.038;2022-11-13T01:11:06;55.77;;;24.10;;
19189;SDS011;9727;50.200;19.038;2022-11-13T01:13:34;61.80;;;25.03;;
19189;SDS011;9727;50.200;19.038;2022-11-13T01:16:03;62.97;;;25.23;;
19189;SDS011;9727;50.200;19.038;2022-11-13T01:18:30;67.40;;;23.87;;
19189;SDS011;9727;50.200;19.038;2022-11-13T01:21:00;74.90;;;23.47;;
19189;SDS011;9727;50.200;19.038;2022-11-13T01:23:27;50.70;;;23.33;;
19189;SDS011;9727;50.200;19.038;2022-11-13T01:25:53;59.17;;;22.67;;
19189;SDS011;9727;50.200;19.038;2022-11-13T01:28:20;76.40;;;23.90;;
19189;SDS011;9727;50.200;19.038;2022-11-13T01:30:47;57.90;;;23.10;;
19189;SDS011;9727;50.200;19.038;2022-11-13T01:33:14;53.20;;;23.43;;
19189;SDS011;9727;50.200;19.038;2022-11-13T01:35:40;56.40;;;22.70;;
19189;SDS011;9727;50.200;19.038;2022-11-13T01:38:07;61.77;;;23.13;;
19189;SDS011;9727;50.200;19.038;2022-11-13T01:40:34;71.67;;;23.50;;
19189;SDS011;9727;50.200;19.038;2022-11-13T01:43:10;59.60;;;22.07;;
19189;SDS011;9727;50.200;19.038;2022-11-13T01:48:25;54.80;;;22.37;;
19189;SDS011;9727;50.200;19.038;2022-11-13T01:50:53;67.63;;;23.13;;
19189;SDS011;9727;50.200;19.038;2022-11-13T01:53:20;70.23;;;24.07;;
19189;SDS011;9727;50.200;19.038;2022-11-13T01:55:46;67.13;;;22.30;;
19189;SDS011;9727;50.200;19.038;2022-11-13T01:58:13;68.63;;;23.80;;
19189;SDS011;9727;50.200;19.038;2022-11-13T02:00:39;58.33;;;23.90;;
19189;SDS011;9727;50.200;19.038;2022-11-13T02:03:10;76.10;;;23.30;;
19189;SDS011;9727;50.200;19.038;2022-11-13T02:05:37;59.10;;;23.53;;
19189;SDS011;9727;50.200;19.038;2022-11-13T02:08:04;62.67;;;23.40;;
19189;SDS011;9727;50.200;19.038;2022-11-13T02:10:30;62.83;;;24.23;;
19189;SDS011;9727;50.200;19.038;2022-11-13T02:12:57;79.67;;;24.00;;
19189;SDS011;9727;50.200;19.038;2022-11-13T02:15:24;54.57;;;23.70;;
19189;SDS011;9727;50.200;19.038;2022-11-13T02:17:53;60.97;;;23.93;;
19189;SDS011;9727;50.200;19.038;2022-11-13T02:20:26;60.07;;;23.00;;
19189;SDS011;9727;50.200;19.038;2022-11-13T02:22:58;67.20;;;24.90;;
19189;SDS011;9727;50.200;19.038;2022-11-13T02:25:29;63.10;;;24.57;;
19189;SDS011;9727;50.200;19.038;2022-11-13T02:27:56;69.50;;;26.27;;
19189;SDS011;9727;50.200;19.038;2022-11-13T02:30:23;63.57;;;24.80;;
19189;SDS011;9727;50.200;19.038;2022-11-13T02:32:52;65.10;;;24.50;;
19189;SDS011;9727;50.200;19.038;2022-11-13T02:35:20;67.80;;;25.50;;
19189;SDS011;9727;50.200;19.038;2022-11-13T02:37:47;67.07;;;26.70;;
19189;SDS011;9727;50.200;19.038;2022-11-13T02:40:13;70.33;;;26.60;;
19189;SDS011;9727;50.200;19.038;2022-11-13T02:42:42;85.10;;;26.60;;
19189;SDS011;9727;50.200;19.038;2022-11-13T02:45:09;71.53;;;27.80;;
19189;SDS011;9727;50.200;19.038;2022-11-13T02:47:35;69.83;;;28.30;;
19189;SDS011;9727;50.200;19.038;2022-11-13T02:50:02;83.53;;;29.30;;
19189;SDS011;9727;50.200;19.038;2022-11-13T02:52:29;82.97;;;28.00;;
19189;SDS011;9727;50.200;19.038;2022-11-13T02:54:56;90.03;;;29.27;;
19189;SDS011;9727;50.200;19.038;2022-11-13T02:57:22;84.70;;;28.50;;
19189;SDS011;9727;50.200;19.038;2022-11-13T02:59:53;87.70;;;29.57;;
19189;SDS011;9727;50.200;19.038;2022-11-13T03:02:19;119.90;;;30.43;;
19189;SDS011;9727;50.200;19.038;2022-11-13T03:04:46;93.67;;;31.03;;
19189;SDS011;9727;50.200;19.038;2022-11-13T03:07:12;84.47;;;28.07;;
19189;SDS011;9727;50.200;19.038;2022-11-13T03:09:39;92.53;;;31.43;;
19189;SDS011;9727;50.200;19.038;2022-11-13T03:12:05;85.37;;;29.73;;
19189;SDS011;9727;50.200;19.038;2022-11-13T03:14:32;81.17;;;29.73;;
19189;SDS011;9727;50.200;19.038;2022-11-13T03:17:00;84.77;;;29.47;;
19189;SDS011;9727;50.200;19.038;2022-11-13T03:19:27;75.60;;;27.47;;
19189;SDS011;9727;50.200;19.038;2022-11-13T03:21:54;73.63;;;28.33;;
19189;SDS011;9727;50.200;19.038;2022-11-13T03:24:20;61.63;;;25.40;;
19189;SDS011;9727;50.200;19.038;2022-11-13T03:26:47;72.23;;;26.47;;
19189;SDS011;9727;50.200;19.038;2022-11-13T03:29:13;72.37;;;26.67;;
19189;SDS011;9727;50.200;19.038;2022-11-13T03:31:40;75.97;;;27.80;;
19189;SDS011;9727;50.200;19.038;2022-11-13T03:34:10;68.10;;;24.97;;
19189;SDS011;9727;50.200;19.038;2022-11-13T03:36:37;74.70;;;27.97;;
19189;SDS011;9727;50.200;19.038;2022-11-13T03:39:03;76.33;;;27.57;;
19189;SDS011;9727;50.200;19.038;2022-11-13T03:41:30;66.07;;;25.83;;
19189;SDS011;9727;50.200;19.038;2022-11-13T03:43:57;67.53;;;25.13;;
19189;SDS011;9727;50.200;19.038;2022-11-13T03:46:23;65.47;;;24.30;;
19189;SDS011;9727;50.200;19.038;2022-11-13T03:48:50;62.00;;;25.50;;
19189;SDS011;9727;50.200;19.038;2022-11-13T03:51:18;64.97;;;26.23;;
19189;SDS011;9727;50.200;19.038;2022-11-13T03:53:45;71.77;;;26.67;;
19189;SDS011;9727;50.200;19.038;2022-11-13T03:56:11;67.83;;;26.97;;
19189;SDS011;9727;50.200;19.038;2022-11-13T03:58:38;79.60;;;30.10;;
19189;SDS011;9727;50.200;19.038;2022-11-13T04:01:04;77.00;;;28.33;;
19189;SDS011;9727;50.200;19.038;2022-11-13T04:03:31;68.77;;;27.03;;
19189;SDS011;9727;50.200;19.038;2022-11-13T04:05:57;67.10;;;26.47;;
19189;SDS011;9727;50.200;19.038;2022-11-13T04:08:25;73.80;;;27.17;;
19189;SDS011;9727;50.200;19.038;2022-11-13T04:10:51;60.57;;;24.87;;
19189;SDS011;9727;50.200;19.038;2022-11-13T04:13:18;74.00;;;28.10;;
19189;SDS011;9727;50.200;19.038;2022-11-13T04:15:44;75.47;;;28.10;;
19189;SDS011;9727;50.200;19.038;2022-11-13T04:18:12;74.67;;;26.57;;
19189;SDS011;9727;50.200;19.038;2022-11-13T04:20:38;69.47;;;26.70;;
19189;SDS011;9727;50.200;19.038;2022-11-13T04:23:05;74.70;;;26.43;;
19189;SDS011;9727;50.200;19.038;2022-11-13T04:25:36;74.60;;;27.63;;
19189;SDS011;9727;50.200;19.038;2022-11-13T04:28:03;82.40;;;27.53;;
19189;SDS011;9727;50.200;19.038;2022-11-13T04:30:29;75.10;;;27.03;;
19189;SDS011;9727;50.200;19.038;2022-11-13T04:32:56;94.43;;;29.73;;
19189;SDS011;9727;50.200;19.038;2022-11-13T04:35:22;75.10;;;26.43;;
19189;SDS011;9727;50.200;19.038;2022-11-13T04:37:49;75.73;;;27.27;;
19189;SDS011;9727;50.200;19.038;2022-11-13T04:40:16;90.20;;;29.83;;
19189;SDS011;9727;50.200;19.038;2022-11-13T04:42:44;100.67;;;31.53;;
19189;SDS011;9727;50.200;19.038;2022-11-13T04:45:14;85.50;;;29.17;;
19189;SDS011;9727;50.200;19.038;2022-11-13T04:47:44;84.60;;;30.47;;
19189;SDS011;9727;50.200;19.038;2022-11-13T04:50:11;90.87;;;29.83;;
19189;SDS011;9727;50.200;19.038;2022-11-13T04:52:38;83.53;;;26.27;;
19189;SDS011;9727;50.200;19.038;2022-11-13T04:55:05;83.20;;;28.47;;
19189;SDS011;9727;50.200;19.038;2022-11-13T04:57:31;83.63;;;29.70;;
19189;SDS011;9727;50.200;19.038;2022-11-13T04:59:59;92.77;;;31.50;;
19189;SDS011;9727;50.200;19.038;2022-11-13T05:02:25;92.43;;;30.10;;
19189;SDS011;9727;50.200;19.038;2022-11-13T05:04:52;86.50;;;28.40;;
19189;SDS011;9727;50.200;19.038;2022-11-13T05:07:18;84.20;;;29.13;;
19189;SDS011;9727;50.200;19.038;2022-11-13T05:09:45;86.60;;;27.60;;
19189;SDS011;9727;50.200;19.038;2022-11-13T05:12:11;90.13;;;29.93;;
19189;SDS011;9727;50.200;19.038;2022-11-13T05:14:38;93.87;;;28.93;;
19189;SDS011;9727;50.200;19.038;2022-11-13T05:17:08;86.87;;;29.73;;
19189;SDS011;9727;50.200;19.038;2022-11-13T05:19:34;92.13;;;28.20;;
19189;SDS011;9727;50.200;19.038;2022-11-13T05:22:01;84.47;;;30.23;;
19189;SDS011;9727;50.200;19.038;2022-11-13T05:24:28;101.03;;;31.27;;
19189;SDS011;9727;50.200;19.038;2022-11-13T05:26:55;88.67;;;28.53;;
19189;SDS011;9727;50.200;19.038;2022-11-13T05:29:21;90.20;;;29.73;;
19189;SDS011;9727;50.200;19.038;2022-11-13T05:31:47;81.10;;;29.30;;
19189;SDS011;9727;50.200;19.038;2022-11-13T05:34:15;96.20;;;31.80;;
19189;SDS011;9727;50.200;19.038;2022-11-13T05:36:42;86.47;;;28.00;;
19189;SDS011;9727;50.200;19.038;2022-11-13T05:39:09;88.90;;;32.63;;
19189;SDS011;9727;50.200;19.038;2022-11-13T05:41:36;98.07;;;36.73;;
19189;SDS011;9727;50.200;19.038;2022-11-13T05:44:02;96.00;;;30.47;;
19189;SDS011;9727;50.200;19.038;2022-11-13T05:46:29;97.67;;;29.57;;
19189;SDS011;9727;50.200;19.038;2022-11-13T05:48:56;94.77;;;29.00;;
19189;SDS011;9727;50.200;19.038;2022-11-13T05:51:24;83.33;;;28.03;;
19189;SDS011;9727;50.200;19.038;2022-11-13T05:53:51;78.83;;;26.77;;
19189;SDS011;9727;50.200;19.038;2022-11-13T05:56:18;79.50;;;26.73;;
19189;SDS011;9727;50.200;19.038;2022-11-13T05:58:45;81.83;;;27.10;;
19189;SDS011;9727;50.200;19.038;2022-11-13T06:01:13;80.97;;;26.87;;
19189;SDS011;9727;50.200;19.038;2022-11-13T06:03:40;76.43;;;27.43;;
19189;SDS011;9727;50.200;19.038;2022-11-13T06:06:10;78.60;;;27.37;;
19189;SDS011;9727;50.200;19.038;2022-11-13T06:08:38;82.90;;;26.57;;
19189;SDS011;9727;50.200;19.038;2022-11-13T06:11:06;85.03;;;27.07;;
19189;SDS011;9727;50.200;19.038;2022-11-13T06:13:33;69.77;;;25.40;;
19189;SDS011;9727;50.200;19.038;2022-11-13T06:15:59;78.63;;;25.77;;
19189;SDS011;9727;50.200;19.038;2022-11-13T06:18:27;77.00;;;25.67;;
19189;SDS011;9727;50.200;19.038;2022-11-13T06:20:53;77.83;;;26.80;;
19189;SDS011;9727;50.200;19.038;2022-11-13T06:23:19;77.83;;;26.87;;
19189;SDS011;9727;50.200;19.038;2022-11-13T06:25:47;75.80;;;28.10;;
19189;SDS011;9727;50.200;19.038;2022-11-13T06:28:14;81.50;;;27.87;;
19189;SDS011;9727;50.200;19.038;2022-11-13T06:30:40;88.33;;;30.60;;
19189;SDS011;9727;50.200;19.038;2022-11-13T06:33:07;80.17;;;27.63;;
19189;SDS011;9727;50.200;19.038;2022-11-13T06:35:34;75.87;;;27.07;;
19189;SDS011;9727;50.200;19.038;2022-11-13T06:38:00;76.63;;;26.90;;
19189;SDS011;9727;50.200;19.038;2022-11-13T06:40:27;75.53;;;26.93;;
19189;SDS011;9727;50.200;19.038;2022-11-13T06:42:55;101.23;;;28.33;;
19189;SDS011;9727;50.200;19.038;2022-11-13T06:45:21;77.33;;;27.03;;
19189;SDS011;9727;50.200;19.038;2022-11-13T06:47:48;93.17;;;28.40;;
19189;SDS011;9727;50.200;19.038;2022-11-13T06:50:14;91.73;;;30.07;;
19189;SDS011;9727;50.200;19.038;2022-11-13T06:52:42;80.47;;;28.20;;
19189;SDS011;9727;50.200;19.038;2022-11-13T06:55:09;78.97;;;28.37;;
19189;SDS011;9727;50.200;19.038;2022-11-13T06:57:35;74.40;;;27.93;;
19189;SDS011;9727;50.200;19.038;2022-11-13T07:00:03;83.40;;;28.83;;
19189;SDS011;9727;50.200;19.038;2022-11-13T07:02:30;78.30;;;29.17;;
19189;SDS011;9727;50.200;19.038;2022-11-13T07:04:57;113.07;;;29.50;;
19189;SDS011;9727;50.200;19.038;2022-11-13T07:07:23;87.83;;;29.30;;
19189;SDS011;9727;50.200;19.038;2022-11-13T07:09:53;80.40;;;28.33;;
19189;SDS011;9727;50.200;19.038;2022-11-13T07:12:19;73.47;;;27.50;;
19189;SDS011;9727;50.200;19.038;2022-11-13T07:14:46;80.40;;;29.07;;
19189;SDS011;9727;50.200;19.038;2022-11-13T07:17:13;78.73;;;29.90;;
19189;SDS011;9727;50.200;19.038;2022-11-13T07:19:40;87.90;;;32.87;;
19189;SDS011;9727;50.200;19.038;2022-11-13T07:22:07;75.90;;;28.30;;
19189;SDS011;9727;50.200;19.038;2022-11-13T07:24:34;73.13;;;29.80;;
19189;SDS011;9727;50.200;19.038;2022-11-13T07:27:00;79.57;;;29.77;;
19189;SDS011;9727;50.200;19.038;2022-11-13T07:29:27;73.30;;;29.50;;
19189;SDS011;9727;50.200;19.038;2022-11-13T07:31:54;64.93;;;27.43;;
19189;SDS011;9727;50.200;19.038;2022-11-13T07:34:21;82.43;;;29.23;;
19189;SDS011;9727;50.200;19.038;2022-11-13T07:36:48;66.30;;;26.30;;
19189;SDS011;9727;50.200;19.038;2022-11-13T07:39:14;63.80;;;27.13;;
19189;SDS011;9727;50.200;19.038;2022-11-13T07:41:43;55.63;;;24.43;;
19189;SDS011;9727;50.200;19.038;2022-11-13T07:44:12;62.13;;;27.00;;
19189;SDS011;9727;50.200;19.038;2022-11-13T07:46:38;61.23;;;25.60;;
19189;SDS011;9727;50.200;19.038;2022-11-13T07:49:05;56.90;;;24.43;;
19189;SDS011;9727;50.200;19.038;2022-11-13T07:51:33;57.77;;;24.40;;
19189;SDS011;9727;50.200;19.038;2022-11-13T07:53:59;61.60;;;24.83;;
19189;SDS011;9727;50.200;19.038;2022-11-13T07:56:26;64.63;;;26.63;;
19189;SDS011;9727;50.200;19.038;2022-11-13T07:58:52;61.57;;;26.07;;
19189;SDS011;9727;50.200;19.038;2022-11-13T08:01:19;59.93;;;26.07;;
19189;SDS011;9727;50.200;19.038;2022-11-13T08:03:45;63.30;;;26.73;;
19189;SDS011;9727;50.200;19.038;2022-11-13T08:06:11;72.07;;;27.47;;
19189;SDS011;9727;50.200;19.038;2022-11-13T08:08:39;67.53;;;27.73;;
19189;SDS011;9727;50.200;19.038;2022-11-13T08:11:06;63.97;;;25.70;;
19189;SDS011;9727;50.200;19.038;2022-11-13T08:13:33;75.40;;;26.07;;
19189;SDS011;9727;50.200;19.038;2022-11-13T08:16:00;52.63;;;22.40;;
19189;SDS011;9727;50.200;19.038;2022-11-13T08:18:28;56.53;;;23.47;;
19189;SDS011;9727;50.200;19.038;2022-11-13T08:20:54;52.70;;;22.07;;
19189;SDS011;9727;50.200;19.038;2022-11-13T08:23:21;63.53;;;24.17;;
19189;SDS011;9727;50.200;19.038;2022-11-13T08:25:49;60.03;;;23.93;;
19189;SDS011;9727;50.200;19.038;2022-11-13T08:28:16;68.47;;;22.93;;
19189;SDS011;9727;50.200;19.038;2022-11-13T08:30:43;49.90;;;21.30;;
19189;SDS011;9727;50.200;19.038;2022-11-13T08:33:10;56.67;;;23.17;;
19189;SDS011;9727;50.200;19.038;2022-11-13T08:35:36;62.20;;;24.53;;
19189;SDS011;9727;50.200;19.038;2022-11-13T08:38:03;60.90;;;24.37;;
19189;SDS011;9727;50.200;19.038;2022-11-13T08:40:30;66.47;;;26.73;;
19189;SDS011;9727;50.200;19.038;2022-11-13T08:42:59;71.40;;;25.17;;
19189;SDS011;9727;50.200;19.038;2022-11-13T08:45:25;61.13;;;24.33;;
19189;SDS011;9727;50.200;19.038;2022-11-13T08:47:52;56.57;;;23.83;;
19189;SDS011;9727;50.200;19.038;2022-11-13T08:50:18;58.27;;;24.10;;
19189;SDS011;9727;50.200;19.038;2022-11-13T08:52:45;57.50;;;22.63;;
19189;SDS011;9727;50.200;19.038;2022-11-13T08:55:11;65.97;;;23.00;;
19189;SDS011;9727;50.200;19.038;2022-11-13T08:57:38;57.30;;;23.20;;
19189;SDS011;9727;50.200;19.038;2022-11-13T09:00:07;57.60;;;23.40;;
19189;SDS011;9727;50.200;19.038;2022-11-13T09:02:33;56.30;;;25.00;;
19189;SDS011;9727;50.200;19.038;2022-11-13T09:05:00;53.47;;;24.50;;
19189;SDS011;9727;50.200;19.038;2022-11-13T09:07:26;54.93;;;24.13;;
19189;SDS011;9727;50.200;19.038;2022-11-13T09:09:53;52.13;;;23.47;;
19189;SDS011;9727;50.200;19.038;2022-11-13T09:12:19;57.30;;;25.33;;
19189;SDS011;9727;50.200;19.038;2022-11-13T09:14:54;56.90;;;24.43;;
19189;SDS011;9727;50.200;19.038;2022-11-13T09:17:22;53.30;;;23.93;;
19189;SDS011;9727;50.200;19.038;2022-11-13T09:19:49;61.37;;;26.50;;
19189;SDS011;9727;50.200;19.038;2022-11-13T09:22:17;60.37;;;23.60;;
19189;SDS011;9727;50.200;19.038;2022-11-13T09:24:44;55.60;;;23.83;;
19189;SDS011;9727;50.200;19.038;2022-11-13T09:27:11;54.57;;;23.23;;
19189;SDS011;9727;50.200;19.038;2022-11-13T09:29:37;53.83;;;24.27;;
19189;SDS011;9727;50.200;19.038;2022-11-13T09:32:04;54.13;;;23.80;;
19189;SDS011;9727;50.200;19.038;2022-11-13T09:34:32;60.97;;;24.60;;
19189;SDS011;9727;50.200;19.038;2022-11-13T09:36:58;60.97;;;26.43;;
19189;SDS011;9727;50.200;19.038;2022-11-13T09:39:25;57.30;;;26.37;;
19189;SDS011;9727;50.200;19.038;2022-11-13T09:41:53;59.43;;;27.93;;
19189;SDS011;9727;50.200;19.038;2022-11-13T09:44:33;58.10;;;26.90;;
19189;SDS011;9727;50.200;19.038;2022-11-13T09:47:05;58.27;;;27.03;;
19189;SDS011;9727;50.200;19.038;2022-11-13T09:49:40;60.03;;;27.63;;
19189;SDS011;9727;50.200;19.038;2022-11-13T09:52:09;53.50;;;26.07;;
19189;SDS011;9727;50.200;19.038;2022-11-13T09:54:37;52.23;;;25.00;;
19189;SDS011;9727;50.200;19.038;2022-11-13T09:57:06;59.87;;;28.10;;
19189;SDS011;9727;50.200;19.038;2022-11-13T09:59:36;61.83;;;26.10;;
19189;SDS011;9727;50.200;19.038;2022-11-13T10:02:13;62.33;;;30.63;;
19189;SDS011;9727;50.200;19.038;2022-11-13T10:04:47;60.10;;;29.60;;
19189;SDS011;9727;50.200;19.038;2022-11-13T10:07:18;50.67;;;24.03;;
19189;SDS011;9727;50.200;19.038;2022-11-13T10:12:32;62.70;;;29.80;;
19189;SDS011;9727;50.200;19.038;2022-11-13T10:14:59;62.43;;;29.90;;
19189;SDS011;9727;50.200;19.038;2022-11-13T10:17:37;61.10;;;26.80;;
19189;SDS011;9727;50.200;19.038;2022-11-13T10:20:17;63.07;;;28.70;;
19189;SDS011;9727;50.200;19.038;2022-11-13T10:23:03;52.50;;;26.07;;
19189;SDS011;9727;50.200;19.038;2022-11-13T10:25:33;56.07;;;24.87;;
19189;SDS011;9727;50.200;19.038;2022-11-13T10:28:00;56.57;;;26.20;;
19189;SDS011;9727;50.200;19.038;2022-11-13T10:30:29;62.53;;;27.73;;
19189;SDS011;9727;50.200;19.038;2022-11-13T10:33:00;63.57;;;27.77;;
19189;SDS011;9727;50.200;19.038;2022-11-13T10:38:17;61.77;;;27.33;;
19189;SDS011;9727;50.200;19.038;2022-11-13T10:40:45;57.80;;;26.33;;
19189;SDS011;9727;50.200;19.038;2022-11-13T10:43:23;59.20;;;27.77;;
19189;SDS011;9727;50.200;19.038;2022-11-13T10:45:54;55.27;;;26.43;;
19189;SDS011;9727;50.200;19.038;2022-11-13T10:48:32;56.53;;;26.83;;
19189;SDS011;9727;50.200;19.038;2022-11-13T10:51:20;60.43;;;26.97;;
19189;SDS011;9727;50.200;19.038;2022-11-13T10:53:48;59.27;;;27.63;;
19189;SDS011;9727;50.200;19.038;2022-11-13T10:56:24;53.13;;;25.97;;
19189;SDS011;9727;50.200;19.038;2022-11-13T10:58:58;54.87;;;27.00;;
19189;SDS011;9727;50.200;19.038;2022-11-13T11:01:25;61.50;;;28.10;;
19189;SDS011;9727;50.200;19.038;2022-11-13T11:03:51;72.47;;;32.27;;
19189;SDS011;9727;50.200;19.038;2022-11-13T11:06:18;67.40;;;30.00;;
19189;SDS011;9727;50.200;19.038;2022-11-13T11:08:44;62.30;;;28.90;;
19189;SDS011;9727;50.200;19.038;2022-11-13T11:11:13;67.17;;;28.77;;
19189;SDS011;9727;50.200;19.038;2022-11-13T11:14:09;61.97;;;29.40;;
19189;SDS011;9727;50.200;19.038;2022-11-13T11:16:42;66.77;;;30.53;;
19189;SDS011;9727;50.200;19.038;2022-11-13T11:19:10;58.60;;;30.10;;
19189;SDS011;9727;50.200;19.038;2022-11-13T11:21:38;61.67;;;28.67;;
19189;SDS011;9727;50.200;19.038;2022-11-13T11:24:08;57.27;;;27.47;;
19189;SDS011;9727;50.200;19.038;2022-11-13T11:26:40;58.93;;;28.73;;
19189;SDS011;9727;50.200;19.038;2022-11-13T11:29:12;62.23;;;29.97;;
19189;SDS011;9727;50.200;19.038;2022-11-13T11:31:40;54.33;;;28.07;;
19189;SDS011;9727;50.200;19.038;2022-11-13T11:34:14;62.73;;;29.67;;
19189;SDS011;9727;50.200;19.038;2022-11-13T11:36:46;64.77;;;30.40;;
19189;SDS011;9727;50.200;19.038;2022-11-13T11:39:20;65.60;;;29.93;;
19189;SDS011;9727;50.200;19.038;2022-11-13T11:42:03;70.00;;;32.70;;
19189;SDS011;9727;50.200;19.038;2022-11-13T11:44:37;60.03;;;29.93;;
19189;SDS011;9727;50.200;19.038;2022-11-13T11:47:08;62.33;;;30.33;;
19189;SDS011;9727;50.200;19.038;2022-11-13T11:49:38;71.67;;;35.30;;
19189;SDS011;9727;50.200;19.038;2022-11-13T11:52:10;67.83;;;31.50;;
19189;SDS011;9727;50.200;19.038;2022-11-13T11:54:40;62.20;;;29.03;;
19189;SDS011;9727;50.200;19.038;2022-11-13T11:57:17;63.87;;;30.33;;
19189;SDS011;9727;50.200;19.038;2022-11-13T11:59:50;61.07;;;29.30;;
19189;SDS011;9727;50.200;19.038;2022-11-13T12:02:34;63.27;;;31.97;;
19189;SDS011;9727;50.200;19.038;2022-11-13T12:05:07;73.40;;;35.43;;
19189;SDS011;9727;50.200;19.038;2022-11-13T12:07:38;71.23;;;32.77;;
19189;SDS011;9727;50.200;19.038;2022-11-13T12:10:12;63.00;;;31.20;;
19189;SDS011;9727;50.200;19.038;2022-11-13T12:12:54;69.20;;;33.67;;
19189;SDS011;9727;50.200;19.038;2022-11-13T12:15:23;66.30;;;32.63;;
19189;SDS011;9727;50.200;19.038;2022-11-13T12:17:54;72.50;;;34.03;;
19189;SDS011;9727;50.200;19.038;2022-11-13T12:20:24;68.00;;;32.90;;
19189;SDS011;9727;50.200;19.038;2022-11-13T12:22:53;67.30;;;31.70;;
19189;SDS011;9727;50.200;19.038;2022-11-13T12:25:23;67.30;;;32.57;;
19189;SDS011;9727;50.200;19.038;2022-11-13T12:27:55;68.07;;;32.43;;
19189;SDS011;9727;50.200;19.038;2022-11-13T12:30:23;70.43;;;34.20;;
19189;SDS011;9727;50.200;19.038;2022-11-13T12:35:45;74.23;;;35.30;;
19189;SDS011;9727;50.200;19.038;2022-11-13T12:38:16;80.90;;;39.00;;
19189;SDS011;9727;50.200;19.038;2022-11-13T12:40:46;81.77;;;36.60;;
19189;SDS011;9727;50.200;19.038;2022-11-13T12:43:22;76.30;;;36.67;;
19189;SDS011;9727;50.200;19.038;2022-11-13T12:45:54;72.13;;;36.40;;
19189;SDS011;9727;50.200;19.038;2022-11-13T12:48:25;77.73;;;36.03;;
19189;SDS011;9727;50.200;19.038;2022-11-13T12:51:01;79.00;;;37.47;;
19189;SDS011;9727;50.200;19.038;2022-11-13T12:53:28;70.83;;;36.27;;
19189;SDS011;9727;50.200;19.038;2022-11-13T12:55:55;73.03;;;34.53;;
19189;SDS011;9727;50.200;19.038;2022-11-13T12:58:26;63.17;;;31.67;;
19189;SDS011;9727;50.200;19.038;2022-11-13T13:00:53;76.33;;;34.30;;
19189;SDS011;9727;50.200;19.038;2022-11-13T13:03:25;69.93;;;35.27;;
19189;SDS011;9727;50.200;19.038;2022-11-13T13:06:03;71.00;;;36.90;;
19189;SDS011;9727;50.200;19.038;2022-11-13T13:11:14;71.67;;;35.67;;
19189;SDS011;9727;50.200;19.038;2022-11-13T13:13:46;73.17;;;36.17;;
19189;SDS011;9727;50.200;19.038;2022-11-13T13:16:19;74.17;;;37.47;;
19189;SDS011;9727;50.200;19.038;2022-11-13T13:18:47;71.53;;;36.03;;
19189;SDS011;9727;50.200;19.038;2022-11-13T13:21:14;69.00;;;35.30;;
19189;SDS011;9727;50.200;19.038;2022-11-13T13:23:45;77.43;;;37.20;;
19189;SDS011;9727;50.200;19.038;2022-11-13T13:26:16;67.17;;;36.27;;
19189;SDS011;9727;50.200;19.038;2022-11-13T13:28:44;70.37;;;35.37;;
19189;SDS011;9727;50.200;19.038;2022-11-13T13:31:15;67.67;;;35.00;;
19189;SDS011;9727;50.200;19.038;2022-11-13T13:33:49;74.17;;;38.17;;
19189;SDS011;9727;50.200;19.038;2022-11-13T13:36:23;80.90;;;42.80;;
19189;SDS011;9727;50.200;19.038;2022-11-13T13:38:53;80.60;;;39.00;;
19189;SDS011;9727;50.200;19.038;2022-11-13T13:41:23;77.60;;;38.27;;
19189;SDS011;9727;50.200;19.038;2022-11-13T13:43:57;76.40;;;40.40;;
19189;SDS011;9727;50.200;19.038;2022-11-13T13:46:29;71.97;;;37.80;;
19189;SDS011;9727;50.200;19.038;2022-11-13T13:49:01;80.83;;;40.33;;
19189;SDS011;9727;50.200;19.038;2022-11-13T13:51:29;78.83;;;39.93;;
19189;SDS011;9727;50.200;19.038;2022-11-13T13:53:58;75.93;;;39.33;;
19189;SDS011;9727;50.200;19.038;2022-11-13T13:56:25;79.07;;;38.87;;
19189;SDS011;9727;50.200;19.038;2022-11-13T13:58:52;73.53;;;39.17;;
19189;SDS011;9727;50.200;19.038;2022-11-13T14:01:25;79.27;;;39.27;;
19189;SDS011;9727;50.200;19.038;2022-11-13T14:04:11;78.67;;;39.60;;
19189;SDS011;9727;50.200;19.038;2022-11-13T14:06:46;77.70;;;39.20;;
19189;SDS011;9727;50.200;19.038;2022-11-13T14:09:16;82.23;;;41.30;;
19189;SDS011;9727;50.200;19.038;2022-11-13T14:11:43;82.33;;;40.67;;
19189;SDS011;9727;50.200;19.038;2022-11-13T14:14:10;82.57;;;42.23;;
19189;SDS011;9727;50.200;19.038;2022-11-13T14:16:47;79.53;;;40.60;;
19189;SDS011;9727;50.200;19.038;2022-11-13T14:19:16;78.83;;;41.93;;
19189;SDS011;9727;50.200;19.038;2022-11-13T14:21:42;74.37;;;38.77;;
19189;SDS011;9727;50.200;19.038;2022-11-13T14:24:13;70.53;;;37.73;;
19189;SDS011;9727;50.200;19.038;2022-11-13T14:26:40;67.20;;;36.63;;
19189;SDS011;9727;50.200;19.038;2022-11-13T14:29:14;75.67;;;36.87;;
19189;SDS011;9727;50.200;19.038;2022-11-13T14:31:45;66.97;;;35.80;;
19189;SDS011;9727;50.200;19.038;2022-11-13T14:34:13;76.47;;;38.80;;
19189;SDS011;9727;50.200;19.038;2022-11-13T14:36:43;77.60;;;38.63;;
19189;SDS011;9727;50.200;19.038;2022-11-13T14:39:12;73.67;;;38.73;;
19189;SDS011;9727;50.200;19.038;2022-11-13T14:41:45;80.60;;;40.70;;
19189;SDS011;9727;50.200;19.038;2022-11-13T14:44:11;79.73;;;41.70;;